Airfield :
LOGIN :

Register | Disclaimer

   EN    FR    IT 

 










Legend :    VFR   Marginal VFR   IFR   Intensive IFR   Very Intensive IFR
Visi :
Ceiling :
>= 8 km
>= 3000ft
5 to 8 km
1000 to 3000 ft
1500m to 5 km
500 to 1000 ft
800 to 1500m
200 to 500 ft
< 800m
< 200 ft
Symbols :   Thunderstorms  Fog  Heavy snow  Heavy precipitations  Wind > 20 kt
SIGMETs :     Misc.  Thunderstorms  Icing  Turbulence  Mountain Waves  Volcanic Ashes






- Airport Elevation : 183 ft
- IATA code : HAJ


EDDV - Hanover/Langenhagen Int.

CURRENT METAR :
  • 040550Z AUTO 28005KT 240V310 9999 FEW009 16/13 Q1020 NOSIG

EXPIRED METARs :
  • 040520Z AUTO 28005KT 240V310 CAVOK 16/14 Q1020 NOSIG
  • 040450Z AUTO 30004KT 250V330 CAVOK 14/13 Q1019 NOSIG
  • 040350Z AUTO 27003KT 240V300 9999 FEW015 12/11 Q1019 NOSIG
  • 040320Z AUTO 25004KT CAVOK 11/11 Q1019
  • 040250Z AUTO 29003KT 9999 FEW020 11/11 Q1018

TAF TAF EDDV
Valid from the 04 at 06:00 until the 05 at 06:00 UTC


040500Z 0406/0506 27005KT 9999 SCT020
BECMG 0406/0408 27010KT
BECMG 0418/0421 25003KT



MET'MAP, your aeronautical weather chart ! - Copyright ORBIFLY December 2007 - Disclaimer

ORBIFLY MET'MAP TEAM :

Programming & Development : Alexandra Zaïnal
Original concept : Baudouin d'Aumeries
Technical & hardware support : Manuel Goepfert
Assistance : Marc-Olivier Méhu




SOURCES & CREDITS :

   NOAA